sensor_id;sensor_type;location;lat;lon;timestamp;temperature;humidity
4374;DHT22;2201;51.100;6.814;2023-02-11T00:00:52;6.20;98.20
4374;DHT22;2201;51.100;6.814;2023-02-11T00:03:19;6.10;98.20
4374;DHT22;2201;51.100;6.814;2023-02-11T00:05:56;6.10;98.20
4374;DHT22;2201;51.100;6.814;2023-02-11T00:08:25;6.10;98.20
4374;DHT22;2201;51.100;6.814;2023-02-11T00:10:52;6.00;98.20
4374;DHT22;2201;51.100;6.814;2023-02-11T00:13:19;6.00;98.20
4374;DHT22;2201;51.100;6.814;2023-02-11T00:15:46;6.00;98.20
4374;DHT22;2201;51.100;6.814;2023-02-11T00:18:13;6.00;98.20
4374;DHT22;2201;51.100;6.814;2023-02-11T00:20:41;6.00;98.20
4374;DHT22;2201;51.100;6.814;2023-02-11T00:23:08;6.00;98.20
4374;DHT22;2201;51.100;6.814;2023-02-11T00:25:39;6.00;98.20
4374;DHT22;2201;51.100;6.814;2023-02-11T00:28:07;6.00;98.20
4374;DHT22;2201;51.100;6.814;2023-02-11T00:30:34;6.00;98.20
4374;DHT22;2201;51.100;6.814;2023-02-11T00:33:01;6.00;98.20
4374;DHT22;2201;51.100;6.814;2023-02-11T00:35:28;6.00;98.20
4374;DHT22;2201;51.100;6.814;2023-02-11T00:37:55;6.00;98.20
4374;DHT22;2201;51.100;6.814;2023-02-11T00:40:22;6.00;98.20
4374;DHT22;2201;51.100;6.814;2023-02-11T00:42:51;6.00;98.20
4374;DHT22;2201;51.100;6.814;2023-02-11T00:45:18;6.00;98.20
4374;DHT22;2201;51.100;6.814;2023-02-11T00:47:46;6.00;98.20
4374;DHT22;2201;51.100;6.814;2023-02-11T00:50:13;6.10;98.20
4374;DHT22;2201;51.100;6.814;2023-02-11T00:52:40;6.10;98.20
4374;DHT22;2201;51.100;6.814;2023-02-11T00:55:07;6.10;98.20
4374;DHT22;2201;51.100;6.814;2023-02-11T00:57:34;6.00;98.20
4374;DHT22;2201;51.100;6.814;2023-02-11T01:00:04;6.00;98.20
4374;DHT22;2201;51.100;6.814;2023-02-11T01:02:31;6.00;98.20
4374;DHT22;2201;51.100;6.814;2023-02-11T01:04:58;6.00;98.20
4374;DHT22;2201;51.100;6.814;2023-02-11T01:07:25;6.00;98.20
4374;DHT22;2201;51.100;6.814;2023-02-11T01:09:52;6.00;98.20
4374;DHT22;2201;51.100;6.814;2023-02-11T01:12:20;6.00;98.20
4374;DHT22;2201;51.100;6.814;2023-02-11T01:14:47;6.00;98.20
4374;DHT22;2201;51.100;6.814;2023-02-11T01:17:15;6.00;98.20
4374;DHT22;2201;51.100;6.814;2023-02-11T01:19:42;5.90;98.20
4374;DHT22;2201;51.100;6.814;2023-02-11T01:22:09;5.90;98.20
4374;DHT22;2201;51.100;6.814;2023-02-11T01:24:36;5.90;98.20
4374;DHT22;2201;51.100;6.814;2023-02-11T01:27:03;5.90;98.20
4374;DHT22;2201;51.100;6.814;2023-02-11T01:29:30;5.90;98.20
4374;DHT22;2201;51.100;6.814;2023-02-11T01:31:57;5.90;98.20
4374;DHT22;2201;51.100;6.814;2023-02-11T01:34:26;5.90;98.20
4374;DHT22;2201;51.100;6.814;2023-02-11T01:36:56;5.80;98.20
4374;DHT22;2201;51.100;6.814;2023-02-11T01:39:23;5.80;98.20
4374;DHT22;2201;51.100;6.814;2023-02-11T01:41:50;5.80;98.20
4374;DHT22;2201;51.100;6.814;2023-02-11T01:44:23;5.80;98.20
4374;DHT22;2201;51.100;6.814;2023-02-11T01:46:50;5.80;98.20
4374;DHT22;2201;51.100;6.814;2023-02-11T01:49:20;5.80;98.20
4374;DHT22;2201;51.100;6.814;2023-02-11T01:51:52;5.80;98.20
4374;DHT22;2201;51.100;6.814;2023-02-11T01:54:23;5.80;98.20
4374;DHT22;2201;51.100;6.814;2023-02-11T01:57:10;5.80;98.20
4374;DHT22;2201;51.100;6.814;2023-02-11T02:00:10;5.70;98.20
4374;DHT22;2201;51.100;6.814;2023-02-11T02:02:43;5.70;98.20
4374;DHT22;2201;51.100;6.814;2023-02-11T02:05:20;5.70;98.20
4374;DHT22;2201;51.100;6.814;2023-02-11T02:07:55;5.70;98.20
4374;DHT22;2201;51.100;6.814;2023-02-11T02:10:26;5.70;98.20
4374;DHT22;2201;51.100;6.814;2023-02-11T02:12:53;5.70;98.20
4374;DHT22;2201;51.100;6.814;2023-02-11T02:15:24;5.70;98.20
4374;DHT22;2201;51.100;6.814;2023-02-11T02:18:07;5.70;98.20
4374;DHT22;2201;51.100;6.814;2023-02-11T02:20:54;5.70;98.20
4374;DHT22;2201;51.100;6.814;2023-02-11T02:26:35;5.70;98.20
4374;DHT22;2201;51.100;6.814;2023-02-11T02:29:36;5.70;98.20
4374;DHT22;2201;51.100;6.814;2023-02-11T02:35:23;5.80;98.20
4374;DHT22;2201;51.100;6.814;2023-02-11T02:37:56;5.80;98.20
4374;DHT22;2201;51.100;6.814;2023-02-11T02:40:27;5.80;98.20
4374;DHT22;2201;51.100;6.814;2023-02-11T02:42:57;5.90;98.20
4374;DHT22;2201;51.100;6.814;2023-02-11T02:45:26;5.90;98.20
4374;DHT22;2201;51.100;6.814;2023-02-11T02:47:53;5.90;98.20
4374;DHT22;2201;51.100;6.814;2023-02-11T02:50:25;5.90;98.20
4374;DHT22;2201;51.100;6.814;2023-02-11T02:53:03;6.00;98.20
4374;DHT22;2201;51.100;6.814;2023-02-11T02:55:41;6.00;98.20
4374;DHT22;2201;51.100;6.814;2023-02-11T02:58:32;6.00;98.20
4374;DHT22;2201;51.100;6.814;2023-02-11T03:01:07;6.00;98.20
4374;DHT22;2201;51.100;6.814;2023-02-11T03:03:44;6.00;98.20
4374;DHT22;2201;51.100;6.814;2023-02-11T03:06:20;6.00;98.20
4374;DHT22;2201;51.100;6.814;2023-02-11T03:08:53;6.10;98.20
4374;DHT22;2201;51.100;6.814;2023-02-11T03:11:23;6.10;98.20
4374;DHT22;2201;51.100;6.814;2023-02-11T03:13:51;6.10;98.20
4374;DHT22;2201;51.100;6.814;2023-02-11T03:16:21;6.10;98.20
4374;DHT22;2201;51.100;6.814;2023-02-11T03:18:53;6.10;98.20
4374;DHT22;2201;51.100;6.814;2023-02-11T03:21:23;6.10;98.20
4374;DHT22;2201;51.100;6.814;2023-02-11T03:23:52;6.20;98.20
4374;DHT22;2201;51.100;6.814;2023-02-11T03:26:24;6.20;98.20
4374;DHT22;2201;51.100;6.814;2023-02-11T03:28:54;6.20;98.20
4374;DHT22;2201;51.100;6.814;2023-02-11T03:31:29;6.20;98.20
4374;DHT22;2201;51.100;6.814;2023-02-11T03:34:03;6.20;98.20
4374;DHT22;2201;51.100;6.814;2023-02-11T03:36:39;6.20;98.20
4374;DHT22;2201;51.100;6.814;2023-02-11T03:39:12;6.20;98.20
4374;DHT22;2201;51.100;6.814;2023-02-11T03:41:41;6.30;98.20
4374;DHT22;2201;51.100;6.814;2023-02-11T03:44:11;6.30;98.20
4374;DHT22;2201;51.100;6.814;2023-02-11T03:46:43;6.30;98.20
4374;DHT22;2201;51.100;6.814;2023-02-11T03:49:14;6.30;98.20
4374;DHT22;2201;51.100;6.814;2023-02-11T03:51:44;6.30;98.20
4374;DHT22;2201;51.100;6.814;2023-02-11T03:54:15;6.30;98.20
4374;DHT22;2201;51.100;6.814;2023-02-11T03:56:50;6.30;98.20
4374;DHT22;2201;51.100;6.814;2023-02-11T03:59:18;6.30;98.20
4374;DHT22;2201;51.100;6.814;2023-02-11T04:01:45;6.30;98.20
4374;DHT22;2201;51.100;6.814;2023-02-11T04:04:12;6.30;98.20
4374;DHT22;2201;51.100;6.814;2023-02-11T04:06:39;6.30;98.20
4374;DHT22;2201;51.100;6.814;2023-02-11T04:09:09;6.30;98.20
4374;DHT22;2201;51.100;6.814;2023-02-11T04:11:36;6.30;98.20
4374;DHT22;2201;51.100;6.814;2023-02-11T04:14:03;6.30;98.20
4374;DHT22;2201;51.100;6.814;2023-02-11T04:16:30;6.30;98.20
4374;DHT22;2201;51.100;6.814;2023-02-11T04:18:57;6.30;98.20
4374;DHT22;2201;51.100;6.814;2023-02-11T04:21:24;6.30;98.20
4374;DHT22;2201;51.100;6.814;2023-02-11T04:23:51;6.30;98.20
4374;DHT22;2201;51.100;6.814;2023-02-11T04:26:19;6.30;98.20
4374;DHT22;2201;51.100;6.814;2023-02-11T04:28:46;6.30;98.20
4374;DHT22;2201;51.100;6.814;2023-02-11T04:31:13;6.30;98.20
4374;DHT22;2201;51.100;6.814;2023-02-11T04:33:40;6.30;98.20
4374;DHT22;2201;51.100;6.814;2023-02-11T04:36:07;6.40;98.20
4374;DHT22;2201;51.100;6.814;2023-02-11T04:38:34;6.30;98.20
4374;DHT22;2201;51.100;6.814;2023-02-11T04:41:01;6.40;98.20
4374;DHT22;2201;51.100;6.814;2023-02-11T04:43:29;6.40;98.20
4374;DHT22;2201;51.100;6.814;2023-02-11T04:45:56;6.30;98.20
4374;DHT22;2201;51.100;6.814;2023-02-11T04:48:23;6.40;98.20
4374;DHT22;2201;51.100;6.814;2023-02-11T04:50:51;6.40;98.20
4374;DHT22;2201;51.100;6.814;2023-02-11T04:53:18;6.30;98.20
4374;DHT22;2201;51.100;6.814;2023-02-11T04:55:47;6.40;98.20
4374;DHT22;2201;51.100;6.814;2023-02-11T04:58:15;6.40;98.20
4374;DHT22;2201;51.100;6.814;2023-02-11T05:00:43;6.40;98.20
4374;DHT22;2201;51.100;6.814;2023-02-11T05:03:10;6.40;98.20
4374;DHT22;2201;51.100;6.814;2023-02-11T05:05:38;6.30;98.20
4374;DHT22;2201;51.100;6.814;2023-02-11T05:08:06;6.40;98.20
4374;DHT22;2201;51.100;6.814;2023-02-11T05:10:33;6.40;98.20
4374;DHT22;2201;51.100;6.814;2023-02-11T05:13:00;6.40;98.20
4374;DHT22;2201;51.100;6.814;2023-02-11T05:15:27;6.40;98.20
4374;DHT22;2201;51.100;6.814;2023-02-11T05:17:55;6.40;98.20
4374;DHT22;2201;51.100;6.814;2023-02-11T05:20:23;6.40;98.20
4374;DHT22;2201;51.100;6.814;2023-02-11T05:22:51;6.40;98.20
4374;DHT22;2201;51.100;6.814;2023-02-11T05:25:18;6.40;98.20
4374;DHT22;2201;51.100;6.814;2023-02-11T05:27:45;6.40;98.20
4374;DHT22;2201;51.100;6.814;2023-02-11T05:30:13;6.40;98.20
4374;DHT22;2201;51.100;6.814;2023-02-11T05:32:41;6.40;98.20
4374;DHT22;2201;51.100;6.814;2023-02-11T05:35:09;6.40;98.20
4374;DHT22;2201;51.100;6.814;2023-02-11T05:37:36;6.40;98.20
4374;DHT22;2201;51.100;6.814;2023-02-11T05:40:03;6.40;98.20
4374;DHT22;2201;51.100;6.814;2023-02-11T05:42:30;6.40;98.20
4374;DHT22;2201;51.100;6.814;2023-02-11T05:44:57;6.40;98.20
4374;DHT22;2201;51.100;6.814;2023-02-11T05:47:24;6.40;98.20
4374;DHT22;2201;51.100;6.814;2023-02-11T05:49:51;6.40;98.20
4374;DHT22;2201;51.100;6.814;2023-02-11T05:52:22;6.40;98.20
4374;DHT22;2201;51.100;6.814;2023-02-11T05:54:50;6.40;98.20
4374;DHT22;2201;51.100;6.814;2023-02-11T05:57:17;6.50;98.20
4374;DHT22;2201;51.100;6.814;2023-02-11T05:59:44;6.40;98.20
4374;DHT22;2201;51.100;6.814;2023-02-11T06:02:11;6.50;98.20
4374;DHT22;2201;51.100;6.814;2023-02-11T06:04:38;6.40;98.20
4374;DHT22;2201;51.100;6.814;2023-02-11T06:07:06;6.50;98.20
4374;DHT22;2201;51.100;6.814;2023-02-11T06:09:35;6.50;98.20
4374;DHT22;2201;51.100;6.814;2023-02-11T06:12:02;6.40;98.20
4374;DHT22;2201;51.100;6.814;2023-02-11T06:14:31;6.40;98.20
4374;DHT22;2201;51.100;6.814;2023-02-11T06:16:58;6.40;98.20
4374;DHT22;2201;51.100;6.814;2023-02-11T06:19:25;6.40;98.20
4374;DHT22;2201;51.100;6.814;2023-02-11T06:21:52;6.40;98.20
4374;DHT22;2201;51.100;6.814;2023-02-11T06:24:19;6.40;98.20
4374;DHT22;2201;51.100;6.814;2023-02-11T06:26:47;6.40;98.20
4374;DHT22;2201;51.100;6.814;2023-02-11T06:29:14;6.40;98.20
4374;DHT22;2201;51.100;6.814;2023-02-11T06:31:44;6.40;98.20
4374;DHT22;2201;51.100;6.814;2023-02-11T06:34:11;6.40;98.20
4374;DHT22;2201;51.100;6.814;2023-02-11T06:36:39;6.40;98.20
4374;DHT22;2201;51.100;6.814;2023-02-11T06:39:07;6.40;98.20
4374;DHT22;2201;51.100;6.814;2023-02-11T06:41:34;6.40;98.20
4374;DHT22;2201;51.100;6.814;2023-02-11T06:44:03;6.40;98.20
4374;DHT22;2201;51.100;6.814;2023-02-11T06:46:31;6.40;98.20
4374;DHT22;2201;51.100;6.814;2023-02-11T06:48:58;6.40;98.20
4374;DHT22;2201;51.100;6.814;2023-02-11T06:51:25;6.40;98.20
4374;DHT22;2201;51.100;6.814;2023-02-11T06:53:53;6.40;98.20
4374;DHT22;2201;51.100;6.814;2023-02-11T06:56:21;6.40;98.20
4374;DHT22;2201;51.100;6.814;2023-02-11T06:58:51;6.40;98.20
4374;DHT22;2201;51.100;6.814;2023-02-11T07:01:22;6.40;98.20
4374;DHT22;2201;51.100;6.814;2023-02-11T07:03:50;6.40;98.20
4374;DHT22;2201;51.100;6.814;2023-02-11T07:06:19;6.40;98.20
4374;DHT22;2201;51.100;6.814;2023-02-11T07:08:47;6.40;98.20
4374;DHT22;2201;51.100;6.814;2023-02-11T07:11:17;6.40;98.20
4374;DHT22;2201;51.100;6.814;2023-02-11T07:13:45;6.40;98.20
4374;DHT22;2201;51.100;6.814;2023-02-11T07:16:14;6.40;98.20
4374;DHT22;2201;51.100;6.814;2023-02-11T07:18:44;6.40;98.20
4374;DHT22;2201;51.100;6.814;2023-02-11T07:21:13;6.40;98.20
4374;DHT22;2201;51.100;6.814;2023-02-11T07:23:42;6.40;98.20
4374;DHT22;2201;51.100;6.814;2023-02-11T07:26:11;6.40;98.20
4374;DHT22;2201;51.100;6.814;2023-02-11T07:28:39;6.40;98.20
4374;DHT22;2201;51.100;6.814;2023-02-11T07:31:07;6.40;98.20
4374;DHT22;2201;51.100;6.814;2023-02-11T07:33:35;6.40;98.20
4374;DHT22;2201;51.100;6.814;2023-02-11T07:36:05;6.40;98.20
4374;DHT22;2201;51.100;6.814;2023-02-11T07:38:34;6.40;98.20
4374;DHT22;2201;51.100;6.814;2023-02-11T07:41:02;6.50;98.20
4374;DHT22;2201;51.100;6.814;2023-02-11T07:43:30;6.50;98.20
4374;DHT22;2201;51.100;6.814;2023-02-11T07:45:57;6.50;98.20
4374;DHT22;2201;51.100;6.814;2023-02-11T07:48:24;6.50;98.20
4374;DHT22;2201;51.100;6.814;2023-02-11T07:50:51;6.50;98.20
4374;DHT22;2201;51.100;6.814;2023-02-11T07:53:20;6.50;98.20
4374;DHT22;2201;51.100;6.814;2023-02-11T07:55:47;6.50;98.20
4374;DHT22;2201;51.100;6.814;2023-02-11T07:58:14;6.50;98.20
4374;DHT22;2201;51.100;6.814;2023-02-11T08:00:41;6.50;98.20
4374;DHT22;2201;51.100;6.814;2023-02-11T08:03:08;6.60;98.20
4374;DHT22;2201;51.100;6.814;2023-02-11T08:05:36;6.60;98.20
4374;DHT22;2201;51.100;6.814;2023-02-11T08:08:04;6.60;98.20
4374;DHT22;2201;51.100;6.814;2023-02-11T08:10:32;6.60;98.20
4374;DHT22;2201;51.100;6.814;2023-02-11T08:13:00;6.60;98.20
4374;DHT22;2201;51.100;6.814;2023-02-11T08:15:27;6.60;98.20
4374;DHT22;2201;51.100;6.814;2023-02-11T08:17:54;6.60;98.20
4374;DHT22;2201;51.100;6.814;2023-02-11T08:20:21;6.60;98.20
4374;DHT22;2201;51.100;6.814;2023-02-11T08:22:48;6.60;98.20
4374;DHT22;2201;51.100;6.814;2023-02-11T08:25:16;6.60;98.20
4374;DHT22;2201;51.100;6.814;2023-02-11T08:27:45;6.70;98.20
4374;DHT22;2201;51.100;6.814;2023-02-11T08:30:13;6.70;98.20
4374;DHT22;2201;51.100;6.814;2023-02-11T08:32:40;6.70;98.20
4374;DHT22;2201;51.100;6.814;2023-02-11T08:35:08;6.70;98.20
4374;DHT22;2201;51.100;6.814;2023-02-11T08:37:37;6.80;98.20
4374;DHT22;2201;51.100;6.814;2023-02-11T08:40:05;6.80;98.20
4374;DHT22;2201;51.100;6.814;2023-02-11T08:42:33;6.80;98.20
4374;DHT22;2201;51.100;6.814;2023-02-11T08:45:01;6.80;98.20
4374;DHT22;2201;51.100;6.814;2023-02-11T08:47:29;6.80;98.20
4374;DHT22;2201;51.100;6.814;2023-02-11T08:49:57;6.90;98.20
4374;DHT22;2201;51.100;6.814;2023-02-11T08:52:24;6.90;98.20
4374;DHT22;2201;51.100;6.814;2023-02-11T08:54:51;6.90;98.20
4374;DHT22;2201;51.100;6.814;2023-02-11T08:57:18;6.90;98.20
4374;DHT22;2201;51.100;6.814;2023-02-11T08:59:46;7.00;98.20
4374;DHT22;2201;51.100;6.814;2023-02-11T09:02:15;7.00;98.20
4374;DHT22;2201;51.100;6.814;2023-02-11T09:04:42;7.00;98.20
4374;DHT22;2201;51.100;6.814;2023-02-11T09:07:09;7.00;98.20
4374;DHT22;2201;51.100;6.814;2023-02-11T09:09:37;7.00;98.20
4374;DHT22;2201;51.100;6.814;2023-02-11T09:12:04;7.00;98.20
4374;DHT22;2201;51.100;6.814;2023-02-11T09:14:32;7.00;98.20
4374;DHT22;2201;51.100;6.814;2023-02-11T09:16:59;7.00;98.20
4374;DHT22;2201;51.100;6.814;2023-02-11T09:19:27;7.10;98.20
4374;DHT22;2201;51.100;6.814;2023-02-11T09:21:54;7.10;98.20
4374;DHT22;2201;51.100;6.814;2023-02-11T09:24:21;7.10;98.20
4374;DHT22;2201;51.100;6.814;2023-02-11T09:26:49;7.10;98.20
4374;DHT22;2201;51.100;6.814;2023-02-11T09:29:16;7.10;98.20
4374;DHT22;2201;51.100;6.814;2023-02-11T09:31:44;7.20;98.20
4374;DHT22;2201;51.100;6.814;2023-02-11T09:34:11;7.20;98.20
4374;DHT22;2201;51.100;6.814;2023-02-11T09:36:42;7.20;98.20
4374;DHT22;2201;51.100;6.814;2023-02-11T09:39:12;7.20;98.20
4374;DHT22;2201;51.100;6.814;2023-02-11T09:44:37;7.30;98.20
4374;DHT22;2201;51.100;6.814;2023-02-11T09:47:13;7.30;98.20
4374;DHT22;2201;51.100;6.814;2023-02-11T09:49:46;7.30;98.20
4374;DHT22;2201;51.100;6.814;2023-02-11T09:52:20;7.30;98.20
4374;DHT22;2201;51.100;6.814;2023-02-11T09:54:54;7.30;98.20
4374;DHT22;2201;51.100;6.814;2023-02-11T09:57:24;7.40;98.20
4374;DHT22;2201;51.100;6.814;2023-02-11T09:59:52;7.40;98.20
4374;DHT22;2201;51.100;6.814;2023-02-11T10:02:26;7.40;98.20
4374;DHT22;2201;51.100;6.814;2023-02-11T10:05:15;7.40;98.20
4374;DHT22;2201;51.100;6.814;2023-02-11T10:07:53;7.40;98.20
4374;DHT22;2201;51.100;6.814;2023-02-11T10:10:38;7.50;98.20
4374;DHT22;2201;51.100;6.814;2023-02-11T10:16:14;7.50;98.20
4374;DHT22;2201;51.100;6.814;2023-02-11T10:19:15;7.50;98.20
4374;DHT22;2201;51.100;6.814;2023-02-11T10:21:55;7.50;98.20
4374;DHT22;2201;51.100;6.814;2023-02-11T10:24:26;7.50;98.20
4374;DHT22;2201;51.100;6.814;2023-02-11T10:26:54;7.60;98.20
4374;DHT22;2201;51.100;6.814;2023-02-11T10:29:33;7.60;98.20
4374;DHT22;2201;51.100;6.814;2023-02-11T10:32:05;7.60;98.20
4374;DHT22;2201;51.100;6.814;2023-02-11T10:34:40;7.60;98.20
4374;DHT22;2201;51.100;6.814;2023-02-11T10:37:08;7.60;98.20
4374;DHT22;2201;51.100;6.814;2023-02-11T10:39:40;7.70;98.20
4374;DHT22;2201;51.100;6.814;2023-02-11T10:42:09;7.70;98.20
4374;DHT22;2201;51.100;6.814;2023-02-11T10:44:39;7.70;98.20
4374;DHT22;2201;51.100;6.814;2023-02-11T10:47:11;7.70;98.20
4374;DHT22;2201;51.100;6.814;2023-02-11T10:49:41;7.70;98.20
4374;DHT22;2201;51.100;6.814;2023-02-11T10:52:20;7.70;98.20
4374;DHT22;2201;51.100;6.814;2023-02-11T10:55:04;7.70;98.20
4374;DHT22;2201;51.100;6.814;2023-02-11T10:57:36;7.80;98.20
4374;DHT22;2201;51.100;6.814;2023-02-11T11:00:18;7.80;98.20
4374;DHT22;2201;51.100;6.814;2023-02-11T11:02:53;7.80;98.20
4374;DHT22;2201;51.100;6.814;2023-02-11T11:05:27;7.80;98.20
4374;DHT22;2201;51.100;6.814;2023-02-11T11:07:56;7.80;98.20
4374;DHT22;2201;51.100;6.814;2023-02-11T11:10:46;7.80;98.20
4374;DHT22;2201;51.100;6.814;2023-02-11T11:13:29;7.70;98.20
4374;DHT22;2201;51.100;6.814;2023-02-11T11:16:08;7.70;98.20
4374;DHT22;2201;51.100;6.814;2023-02-11T11:18:43;7.80;98.20
4374;DHT22;2201;51.100;6.814;2023-02-11T11:21:13;7.80;98.20
4374;DHT22;2201;51.100;6.814;2023-02-11T11:23:47;7.80;98.20
4374;DHT22;2201;51.100;6.814;2023-02-11T11:26:17;7.80;98.20
4374;DHT22;2201;51.100;6.814;2023-02-11T11:28:58;7.90;98.20
4374;DHT22;2201;51.100;6.814;2023-02-11T11:31:29;7.90;98.20
4374;DHT22;2201;51.100;6.814;2023-02-11T11:34:17;7.90;98.20
4374;DHT22;2201;51.100;6.814;2023-02-11T11:36:49;7.90;98.20
4374;DHT22;2201;51.100;6.814;2023-02-11T11:39:21;7.90;98.20
4374;DHT22;2201;51.100;6.814;2023-02-11T11:41:53;7.90;98.20
4374;DHT22;2201;51.100;6.814;2023-02-11T11:44:27;7.90;98.20
4374;DHT22;2201;51.100;6.814;2023-02-11T11:47:16;7.90;98.20
4374;DHT22;2201;51.100;6.814;2023-02-11T11:49:50;7.90;98.20
4374;DHT22;2201;51.100;6.814;2023-02-11T11:52:34;8.00;98.20
4374;DHT22;2201;51.100;6.814;2023-02-11T11:55:05;8.00;98.20
4374;DHT22;2201;51.100;6.814;2023-02-11T11:57:39;8.00;98.20
4374;DHT22;2201;51.100;6.814;2023-02-11T12:00:14;8.00;98.20
4374;DHT22;2201;51.100;6.814;2023-02-11T12:03:03;8.00;98.20
4374;DHT22;2201;51.100;6.814;2023-02-11T12:05:36;8.00;98.20
4374;DHT22;2201;51.100;6.814;2023-02-11T12:08:15;8.00;98.20
4374;DHT22;2201;51.100;6.814;2023-02-11T12:10:58;8.00;98.20
4374;DHT22;2201;51.100;6.814;2023-02-11T12:13:43;8.00;98.20
4374;DHT22;2201;51.100;6.814;2023-02-11T12:16:21;8.00;98.20
4374;DHT22;2201;51.100;6.814;2023-02-11T12:22:09;8.10;98.20
4374;DHT22;2201;51.100;6.814;2023-02-11T12:25:00;8.10;98.20
4374;DHT22;2201;51.100;6.814;2023-02-11T12:27:43;8.20;98.20
4374;DHT22;2201;51.100;6.814;2023-02-11T12:30:27;8.20;98.20
4374;DHT22;2201;51.100;6.814;2023-02-11T12:33:03;8.20;98.20
4374;DHT22;2201;51.100;6.814;2023-02-11T12:35:41;8.20;98.20
4374;DHT22;2201;51.100;6.814;2023-02-11T12:38:32;8.20;98.20
4374;DHT22;2201;51.100;6.814;2023-02-11T12:41:16;8.20;98.20
4374;DHT22;2201;51.100;6.814;2023-02-11T12:44:07;8.20;98.20
4374;DHT22;2201;51.100;6.814;2023-02-11T12:46:43;8.20;98.20
4374;DHT22;2201;51.100;6.814;2023-02-11T12:49:26;8.20;98.20
4374;DHT22;2201;51.100;6.814;2023-02-11T12:52:15;8.20;98.20
4374;DHT22;2201;51.100;6.814;2023-02-11T12:54:50;8.20;98.20
4374;DHT22;2201;51.100;6.814;2023-02-11T12:57:23;8.20;98.20
4374;DHT22;2201;51.100;6.814;2023-02-11T12:59:57;8.20;98.20
4374;DHT22;2201;51.100;6.814;2023-02-11T13:02:33;8.20;98.20
4374;DHT22;2201;51.100;6.814;2023-02-11T13:05:18;8.20;98.20
4374;DHT22;2201;51.100;6.814;2023-02-11T13:07:50;8.20;98.20
4374;DHT22;2201;51.100;6.814;2023-02-11T13:10:25;8.20;98.20
4374;DHT22;2201;51.100;6.814;2023-02-11T13:12:55;8.20;98.20
4374;DHT22;2201;51.100;6.814;2023-02-11T13:15:42;8.20;98.20
4374;DHT22;2201;51.100;6.814;2023-02-11T13:18:24;8.20;98.20
4374;DHT22;2201;51.100;6.814;2023-02-11T13:20:58;8.20;98.20
4374;DHT22;2201;51.100;6.814;2023-02-11T13:23:34;8.20;98.20
4374;DHT22;2201;51.100;6.814;2023-02-11T13:26:11;8.20;98.20
4374;DHT22;2201;51.100;6.814;2023-02-11T13:28:50;8.20;98.20
4374;DHT22;2201;51.100;6.814;2023-02-11T13:31:23;8.20;98.20
4374;DHT22;2201;51.100;6.814;2023-02-11T13:33:58;8.20;98.20
4374;DHT22;2201;51.100;6.814;2023-02-11T13:36:30;8.20;98.20
4374;DHT22;2201;51.100;6.814;2023-02-11T13:39:03;8.30;98.20
4374;DHT22;2201;51.100;6.814;2023-02-11T13:41:39;8.30;98.20
4374;DHT22;2201;51.100;6.814;2023-02-11T13:44:24;8.30;98.20
4374;DHT22;2201;51.100;6.814;2023-02-11T13:46:58;8.40;98.20
4374;DHT22;2201;51.100;6.814;2023-02-11T13:49:38;8.40;98.20
4374;DHT22;2201;51.100;6.814;2023-02-11T13:52:20;8.40;98.20
4374;DHT22;2201;51.100;6.814;2023-02-11T13:54:52;8.50;98.20
4374;DHT22;2201;51.100;6.814;2023-02-11T13:57:26;8.50;98.20
4374;DHT22;2201;51.100;6.814;2023-02-11T13:59:58;8.60;98.20
4374;DHT22;2201;51.100;6.814;2023-02-11T14:02:30;8.60;98.20
4374;DHT22;2201;51.100;6.814;2023-02-11T14:05:24;8.70;98.20
4374;DHT22;2201;51.100;6.814;2023-02-11T14:08:22;8.70;98.20
4374;DHT22;2201;51.100;6.814;2023-02-11T14:11:44;8.80;98.20
4374;DHT22;2201;51.100;6.814;2023-02-11T14:14:20;8.80;98.20
4374;DHT22;2201;51.100;6.814;2023-02-11T14:17:24;8.80;98.20
4374;DHT22;2201;51.100;6.814;2023-02-11T14:19:57;8.90;98.20
4374;DHT22;2201;51.100;6.814;2023-02-11T14:22:38;8.90;98.20
4374;DHT22;2201;51.100;6.814;2023-02-11T14:25:19;8.90;98.20
4374;DHT22;2201;51.100;6.814;2023-02-11T14:27:54;8.90;98.20
4374;DHT22;2201;51.100;6.814;2023-02-11T14:30:41;8.90;98.20
4374;DHT22;2201;51.100;6.814;2023-02-11T14:33:32;9.00;98.20
4374;DHT22;2201;51.100;6.814;2023-02-11T14:39:03;9.00;98.20
4374;DHT22;2201;51.100;6.814;2023-02-11T14:41:43;9.10;98.20
4374;DHT22;2201;51.100;6.814;2023-02-11T14:44:18;9.10;98.20
4374;DHT22;2201;51.100;6.814;2023-02-11T14:46:51;9.10;98.20
4374;DHT22;2201;51.100;6.814;2023-02-11T14:49:25;9.10;98.20
4374;DHT22;2201;51.100;6.814;2023-02-11T14:51:58;9.10;98.20
4374;DHT22;2201;51.100;6.814;2023-02-11T14:54:32;9.10;98.20
4374;DHT22;2201;51.100;6.814;2023-02-11T14:57:10;9.10;98.20
4374;DHT22;2201;51.100;6.814;2023-02-11T14:59:50;9.10;98.20
4374;DHT22;2201;51.100;6.814;2023-02-11T15:02:22;9.20;98.20
4374;DHT22;2201;51.100;6.814;2023-02-11T15:04:53;9.20;98.20
4374;DHT22;2201;51.100;6.814;2023-02-11T15:07:27;9.20;98.20
4374;DHT22;2201;51.100;6.814;2023-02-11T15:09:59;9.20;98.20
4374;DHT22;2201;51.100;6.814;2023-02-11T15:12:28;9.20;98.20
4374;DHT22;2201;51.100;6.814;2023-02-11T15:14:58;9.20;98.20
4374;DHT22;2201;51.100;6.814;2023-02-11T15:17:29;9.20;98.20
4374;DHT22;2201;51.100;6.814;2023-02-11T15:20:01;9.20;98.20
4374;DHT22;2201;51.100;6.814;2023-02-11T15:22:33;9.20;98.20
4374;DHT22;2201;51.100;6.814;2023-02-11T15:25:12;9.20;98.20
4374;DHT22;2201;51.100;6.814;2023-02-11T15:27:48;9.10;98.20
4374;DHT22;2201;51.100;6.814;2023-02-11T15:30:31;9.10;98.20
4374;DHT22;2201;51.100;6.814;2023-02-11T15:33:03;9.10;98.20
4374;DHT22;2201;51.100;6.814;2023-02-11T15:35:36;9.10;98.20
4374;DHT22;2201;51.100;6.814;2023-02-11T15:38:09;9.10;98.20
4374;DHT22;2201;51.100;6.814;2023-02-11T15:40:52;9.10;98.20
4374;DHT22;2201;51.100;6.814;2023-02-11T15:43:25;9.00;98.20
4374;DHT22;2201;51.100;6.814;2023-02-11T15:46:12;9.00;98.20
4374;DHT22;2201;51.100;6.814;2023-02-11T15:48:45;9.00;98.20
4374;DHT22;2201;51.100;6.814;2023-02-11T15:51:20;9.00;98.20
4374;DHT22;2201;51.100;6.814;2023-02-11T15:53:54;9.00;98.20
4374;DHT22;2201;51.100;6.814;2023-02-11T15:56:29;8.90;98.20
4374;DHT22;2201;51.100;6.814;2023-02-11T15:59:10;8.90;98.20
4374;DHT22;2201;51.100;6.814;2023-02-11T16:01:44;8.90;98.20
4374;DHT22;2201;51.100;6.814;2023-02-11T16:04:16;8.90;98.20
4374;DHT22;2201;51.100;6.814;2023-02-11T16:06:48;8.90;98.20
4374;DHT22;2201;51.100;6.814;2023-02-11T16:09:31;8.90;98.20
4374;DHT22;2201;51.100;6.814;2023-02-11T16:12:16;8.90;98.20
4374;DHT22;2201;51.100;6.814;2023-02-11T16:14:49;8.80;98.20
4374;DHT22;2201;51.100;6.814;2023-02-11T16:17:23;8.80;98.20
4374;DHT22;2201;51.100;6.814;2023-02-11T16:19:53;8.80;98.20
4374;DHT22;2201;51.100;6.814;2023-02-11T16:22:25;8.80;98.20
4374;DHT22;2201;51.100;6.814;2023-02-11T16:24:57;8.80;98.20
4374;DHT22;2201;51.100;6.814;2023-02-11T16:27:31;8.70;98.20
4374;DHT22;2201;51.100;6.814;2023-02-11T16:30:01;8.70;98.20
4374;DHT22;2201;51.100;6.814;2023-02-11T16:32:30;8.70;98.20
4374;DHT22;2201;51.100;6.814;2023-02-11T16:34:59;8.70;98.20
4374;DHT22;2201;51.100;6.814;2023-02-11T16:37:28;8.60;98.20
4374;DHT22;2201;51.100;6.814;2023-02-11T16:39:57;8.60;98.20
4374;DHT22;2201;51.100;6.814;2023-02-11T16:42:27;8.60;98.20
4374;DHT22;2201;51.100;6.814;2023-02-11T16:44:56;8.60;98.20
4374;DHT22;2201;51.100;6.814;2023-02-11T16:47:26;8.60;98.20
4374;DHT22;2201;51.100;6.814;2023-02-11T16:49:56;8.50;98.20
4374;DHT22;2201;51.100;6.814;2023-02-11T16:52:26;8.50;98.20
4374;DHT22;2201;51.100;6.814;2023-02-11T16:54:56;8.50;98.20
4374;DHT22;2201;51.100;6.814;2023-02-11T16:57:27;8.40;98.20
4374;DHT22;2201;51.100;6.814;2023-02-11T16:59:55;8.40;98.20
4374;DHT22;2201;51.100;6.814;2023-02-11T17:02:25;8.40;98.20
4374;DHT22;2201;51.100;6.814;2023-02-11T17:04:54;8.40;98.20
4374;DHT22;2201;51.100;6.814;2023-02-11T17:07:22;8.30;98.20